createdAt,value
2019-06-04T00:00:25.118Z,8.23
2019-06-04T00:02:56.494Z,9.00
2019-06-04T00:05:26.281Z,8.67
2019-06-04T00:07:57.472Z,8.53
2019-06-04T00:10:27.621Z,7.67
2019-06-04T00:13:36.536Z,9.20
2019-06-04T00:16:08.268Z,7.03
2019-06-04T00:18:37.723Z,11.50
2019-06-04T00:21:07.458Z,6.97
2019-06-04T00:26:19.083Z,9.50
2019-06-04T00:29:08.393Z,8.13
2019-06-04T00:34:46.456Z,8.77
2019-06-04T00:43:16.007Z,11.53
2019-06-04T00:48:54.161Z,9.67
2019-06-04T00:51:23.748Z,9.77
2019-06-04T00:53:53.779Z,11.53
2019-06-04T00:56:23.264Z,10.73
2019-06-04T00:58:52.669Z,11.20
2019-06-04T01:04:57.939Z,13.37
2019-06-04T01:07:28.751Z,8.93
2019-06-04T01:09:59.243Z,9.83
2019-06-04T01:15:26.097Z,10.27
2019-06-04T01:18:15.316Z,11.77
2019-06-04T01:21:04.953Z,10.50
2019-06-04T01:23:35.424Z,12.53
2019-06-04T01:26:05.650Z,12.73
2019-06-04T01:29:15.979Z,14.57
2019-06-04T01:31:45.992Z,10.07
2019-06-04T01:34:15.568Z,10.73
2019-06-04T01:36:44.987Z,9.53
2019-06-04T01:48:26.518Z,11.90
2019-06-04T01:50:55.906Z,13.90
2019-06-04T01:53:25.251Z,9.97
2019-06-04T01:59:30.788Z,10.43
2019-06-04T02:02:00.175Z,7.87
2019-06-04T02:05:10.278Z,12.63
2019-06-04T02:07:59.259Z,7.90
2019-06-04T02:13:30.628Z,8.07
2019-06-04T02:16:39.274Z,8.73
2019-06-04T02:19:09.720Z,7.10
2019-06-04T02:21:39.915Z,7.07
2019-06-04T02:24:09.801Z,8.33
2019-06-04T02:27:20.115Z,8.37
2019-06-04T02:33:09.556Z,8.20
2019-06-04T02:38:48.100Z,8.13
2019-06-04T02:41:18.590Z,11.63
2019-06-04T02:44:00.892Z,10.17
2019-06-04T02:56:20.749Z,12.97
2019-06-04T03:02:16.585Z,10.17
2019-06-04T03:04:46.145Z,10.27
2019-06-04T03:07:54.823Z,11.57
2019-06-04T03:13:31.766Z,8.57
2019-06-04T03:19:28.296Z,7.40
2019-06-04T03:21:57.654Z,8.73
2019-06-04T03:25:06.344Z,11.43
2019-06-04T03:30:50.377Z,7.70
2019-06-04T03:34:00.115Z,8.80
2019-06-04T03:36:49.343Z,8.77
2019-06-04T03:39:18.723Z,8.20
2019-06-04T03:41:48.146Z,10.53
2019-06-04T03:44:29.300Z,9.23
2019-06-04T03:46:58.845Z,10.13
2019-06-04T03:49:28.191Z,8.63
2019-06-04T03:52:36.996Z,8.17
2019-06-04T03:58:22.889Z,7.07
2019-06-04T04:04:07.122Z,9.77
2019-06-04T04:09:29.051Z,9.93
2019-06-04T04:11:59.744Z,9.57
2019-06-04T04:14:29.258Z,8.97
2019-06-04T04:17:38.613Z,10.63
2019-06-04T04:20:08.045Z,10.10
2019-06-04T04:23:17.282Z,11.30
2019-06-04T04:25:48.180Z,9.47
2019-06-04T04:28:18.773Z,9.70
2019-06-04T04:30:49.711Z,11.60
2019-06-04T04:36:33.645Z,10.13
2019-06-04T04:39:03.432Z,14.37
2019-06-04T04:41:32.796Z,12.10
2019-06-04T04:44:02.355Z,10.00
2019-06-04T04:49:41.379Z,12.37
2019-06-04T04:52:10.745Z,15.80
2019-06-04T04:54:40.399Z,18.87
2019-06-04T04:57:09.794Z,18.10
2019-06-04T04:59:39.342Z,22.17
2019-06-04T05:02:28.348Z,14.43
2019-06-04T05:04:59.021Z,18.47
2019-06-04T05:25:36.859Z,17.77
2019-06-04T05:28:06.289Z,12.67
2019-06-04T05:30:36.629Z,11.43
2019-06-04T05:33:06.845Z,10.43
2019-06-04T05:38:45.062Z,9.63
2019-06-04T05:44:28.441Z,10.10
2019-06-04T05:47:30.670Z,8.00
2019-06-04T05:50:00.384Z,8.53
2019-06-04T05:52:30.999Z,7.80
2019-06-04T06:01:42.968Z,10.63
2019-06-04T06:04:12.759Z,8.33
2019-06-04T06:07:21.542Z,10.00
2019-06-04T06:09:51.010Z,9.23
2019-06-04T06:12:20.367Z,8.80
2019-06-04T06:14:49.818Z,9.10
2019-06-04T06:17:19.203Z,8.80
2019-06-04T06:20:28.322Z,8.53
2019-06-04T06:26:15.194Z,9.00
2019-06-04T06:28:44.595Z,9.97
2019-06-04T06:31:14.172Z,9.20
2019-06-04T06:34:22.889Z,8.93
2019-06-04T06:36:52.334Z,9.40
2019-06-04T06:39:21.763Z,10.93
2019-06-04T06:41:51.184Z,9.20
2019-06-04T06:44:20.671Z,9.47
2019-06-04T06:49:41.853Z,10.77
2019-06-04T06:52:12.340Z,10.40
2019-06-04T06:55:21.341Z,10.47
2019-06-04T06:57:50.816Z,10.17
2019-06-04T07:01:07.165Z,9.93
2019-06-04T07:15:42.671Z,9.27
2019-06-04T07:18:51.500Z,9.17
2019-06-04T07:22:00.418Z,9.83
2019-06-04T07:24:51.830Z,8.97
2019-06-04T07:27:20.769Z,10.17
2019-06-04T07:33:05.331Z,10.37
2019-06-04T07:41:50.186Z,9.67
2019-06-04T07:47:35.299Z,9.30
2019-06-04T07:53:07.303Z,17.20
2019-06-04T07:59:25.148Z,9.77
2019-06-04T08:02:13.603Z,9.07
2019-06-04T08:07:38.691Z,9.63
2019-06-04T08:10:47.591Z,10.10
2019-06-04T08:13:17.094Z,9.87
2019-06-04T08:19:03.133Z,12.13
2019-06-04T08:22:11.955Z,9.43
2019-06-04T08:27:47.713Z,13.43
2019-06-04T08:30:17.354Z,12.77
2019-06-04T08:35:36.902Z,9.97
2019-06-04T08:41:16.418Z,9.00
2019-06-04T08:44:25.060Z,11.23
2019-06-04T08:49:49.601Z,10.07
2019-06-04T08:52:19.178Z,12.13
2019-06-04T08:54:48.526Z,10.27
2019-06-04T08:57:57.333Z,10.73
2019-06-04T09:03:28.560Z,11.33
2019-06-04T09:08:59.725Z,9.57
2019-06-04T09:11:29.109Z,9.53
2019-06-04T09:13:58.598Z,10.33
2019-06-04T09:17:07.362Z,10.07
2019-06-04T09:19:36.961Z,9.93
2019-06-04T09:22:08.510Z,9.47
2019-06-04T09:28:12.385Z,10.20
2019-06-04T09:30:43.786Z,10.20
2019-06-04T09:36:08.190Z,8.13
2019-06-04T09:38:37.731Z,10.50
2019-06-04T09:41:47.863Z,14.53
2019-06-04T09:44:17.885Z,13.80
2019-06-04T09:46:49.328Z,10.60
2019-06-04T09:49:20.315Z,8.80
2019-06-04T09:54:29.359Z,10.20
2019-06-04T09:56:58.849Z,12.10
2019-06-04T10:00:07.683Z,10.13
2019-06-04T10:08:39.997Z,6.70
2019-06-04T10:14:59.832Z,11.37
2019-06-04T10:20:44.020Z,5.57
2019-06-04T10:26:24.971Z,7.77
2019-06-04T10:29:09.147Z,10.40
2019-06-04T10:34:32.347Z,13.70
2019-06-04T10:37:41.074Z,15.63
2019-06-04T10:40:51.901Z,16.87
2019-06-04T10:43:40.052Z,11.03
2019-06-04T10:49:05.136Z,21.27
2019-06-04T11:00:59.473Z,11.73
2019-06-04T11:03:29.643Z,15.90
2019-06-04T11:06:38.650Z,10.23
2019-06-04T11:12:23.134Z,12.17
2019-06-04T11:14:53.917Z,22.07
2019-06-04T11:17:24.029Z,10.00
2019-06-04T11:19:53.635Z,10.80
2019-06-04T11:22:24.599Z,14.03
2019-06-04T11:25:13.251Z,42.47
2019-06-04T11:30:58.348Z,16.40
2019-06-04T11:33:28.662Z,18.00
2019-06-04T11:39:10.292Z,9.30
2019-06-04T11:41:25.458Z,12.87
2019-06-04T11:43:55.144Z,13.10
2019-06-04T11:50:01.954Z,9.10
2019-06-04T12:01:18.107Z,10.23
2019-06-04T12:03:45.893Z,11.40
2019-06-04T12:06:15.122Z,10.87
2019-06-04T12:09:30.708Z,11.43
2019-06-04T12:18:11.006Z,9.57
2019-06-04T12:24:01.977Z,13.40
2019-06-04T12:29:33.642Z,10.30
2019-06-04T12:32:42.283Z,9.23
2019-06-04T12:41:08.823Z,11.20
2019-06-04T12:44:17.475Z,12.23
2019-06-04T12:46:47.018Z,9.37
2019-06-04T13:10:37.659Z,12.47
2019-06-04T13:13:46.488Z,9.93
2019-06-04T13:16:55.250Z,12.50
2019-06-04T13:34:25.242Z,12.27
2019-06-04T13:36:54.638Z,9.97
2019-06-04T13:42:19.726Z,9.03
2019-06-04T13:45:28.451Z,11.00
2019-06-04T13:50:48.932Z,9.70
2019-06-04T13:56:02.226Z,10.63
2019-06-04T14:01:41.609Z,8.60
2019-06-04T14:07:16.067Z,8.30
2019-06-04T14:09:45.941Z,10.57
2019-06-04T14:12:55.003Z,8.73
2019-06-04T14:15:43.453Z,8.67
2019-06-04T14:24:26.426Z,9.50
2019-06-04T14:33:14.358Z,8.90
2019-06-04T14:35:44.270Z,8.23
2019-06-04T14:38:14.378Z,9.23
2019-06-04T14:43:51.713Z,9.97
2019-06-04T14:49:15.862Z,8.50
2019-06-04T14:51:45.658Z,9.07
2019-06-04T14:57:23.020Z,10.57
2019-06-04T15:03:01.352Z,14.03
2019-06-04T15:05:30.995Z,10.77
2019-06-04T15:08:40.104Z,9.37
2019-06-04T15:11:30.160Z,9.27
2019-06-04T15:13:41.159Z,12.83
2019-06-04T15:16:12.605Z,11.33
2019-06-04T15:21:44.593Z,13.20
2019-06-04T15:24:14.859Z,19.20
2019-06-04T15:26:45.345Z,9.50
2019-06-04T15:29:54.177Z,14.37
2019-06-04T15:35:20.283Z,17.67
2019-06-04T15:37:51.033Z,17.70
2019-06-04T15:41:00.180Z,13.63
2019-06-04T15:43:48.794Z,12.87
2019-06-04T15:46:19.200Z,22.93
2019-06-04T15:48:49.711Z,14.60
2019-06-04T15:51:20.124Z,14.73
2019-06-04T15:53:50.504Z,13.37
2019-06-04T16:00:26.947Z,19.83
2019-06-04T16:02:56.726Z,10.67
2019-06-04T16:05:26.184Z,13.83
2019-06-04T16:08:34.975Z,11.03
2019-06-04T16:11:04.433Z,13.43
2019-06-04T16:13:35.971Z,12.83
2019-06-04T16:16:07.363Z,10.90
2019-06-04T16:18:37.146Z,22.77
2019-06-04T16:21:06.552Z,10.27
2019-06-04T16:24:15.331Z,16.57
2019-06-04T16:29:53.885Z,10.03
2019-06-04T16:33:02.768Z,11.43
2019-06-04T16:35:34.013Z,14.83
2019-06-04T16:40:59.582Z,12.07
2019-06-04T16:46:44.307Z,16.83
2019-06-04T16:49:13.826Z,10.50
2019-06-04T16:52:22.964Z,11.87
2019-06-04T16:54:53.823Z,11.40
2019-06-04T16:57:44.512Z,13.43
2019-06-04T17:00:28.337Z,12.40
2019-06-04T17:03:36.986Z,13.37
2019-06-04T17:06:06.583Z,13.83
2019-06-04T17:08:36.385Z,14.80
2019-06-04T17:11:45.182Z,13.73
2019-06-04T17:17:26.855Z,15.83
2019-06-04T17:25:46.250Z,12.47
2019-06-04T17:31:24.491Z,12.87
2019-06-04T17:33:53.976Z,12.20
2019-06-04T17:37:02.800Z,13.63
2019-06-04T17:39:33.262Z,17.50
2019-06-04T17:42:42.200Z,14.73
2019-06-04T17:45:11.779Z,14.57
2019-06-04T17:47:41.185Z,13.80
2019-06-04T17:50:50.080Z,14.77
2019-06-04T17:53:19.517Z,13.10
2019-06-04T17:55:49.075Z,13.57
2019-06-04T18:01:35.679Z,14.90
2019-06-04T18:06:45.512Z,19.23
2019-06-04T18:09:56.882Z,22.10
2019-06-04T18:15:02.546Z,14.97
2019-06-04T18:17:32.197Z,16.83
2019-06-04T18:25:53.451Z,15.73
2019-06-04T18:28:22.860Z,18.40
2019-06-04T18:31:31.955Z,19.43
2019-06-04T18:36:59.174Z,17.43
2019-06-04T18:39:30.061Z,24.53
2019-06-04T18:45:28.717Z,23.90
2019-06-04T18:47:59.983Z,19.40
2019-06-04T18:50:30.881Z,15.83
2019-06-04T18:53:40.228Z,16.67
2019-06-04T18:56:10.004Z,16.80
2019-06-04T18:58:41.131Z,20.83
2019-06-04T19:01:11.293Z,17.27
2019-06-04T19:03:40.939Z,16.00
2019-06-04T19:06:10.375Z,17.13
2019-06-04T19:11:37.212Z,17.70
2019-06-04T19:14:06.961Z,19.53
2019-06-04T19:17:15.735Z,19.63
2019-06-04T19:19:45.278Z,18.63
2019-06-04T19:22:15.108Z,17.57
2019-06-04T19:24:56.673Z,18.60
2019-06-04T19:30:27.845Z,21.57
2019-06-04T19:33:37.481Z,19.73
2019-06-04T19:36:11.392Z,19.70
2019-06-04T19:38:42.489Z,23.03
2019-06-04T19:41:51.606Z,20.97
2019-06-04T19:44:24.002Z,21.77
2019-06-04T19:46:52.267Z,23.87
2019-06-04T19:49:21.868Z,19.63
2019-06-04T19:51:51.458Z,25.20
2019-06-04T19:55:01.195Z,18.67
2019-06-04T20:00:41.845Z,24.67
2019-06-04T20:06:12.613Z,28.37
2019-06-04T20:11:33.053Z,21.70
2019-06-04T20:17:13.836Z,19.07
2019-06-04T20:22:58.212Z,21.53
2019-06-04T20:25:27.826Z,21.83
2019-06-04T20:27:57.497Z,24.37
2019-06-04T20:30:27.520Z,27.13
2019-06-04T20:32:57.875Z,22.07
2019-06-04T20:35:40.735Z,27.03
2019-06-04T20:41:06.900Z,22.33
2019-06-04T20:46:56.967Z,20.73
2019-06-04T20:52:35.610Z,20.97
2019-06-04T20:58:25.531Z,21.73
2019-06-04T21:00:55.232Z,24.97
2019-06-04T21:06:20.372Z,24.27
2019-06-04T21:08:51.765Z,27.27
2019-06-04T21:11:22.499Z,22.00
2019-06-04T21:16:47.729Z,26.27
2019-06-04T21:19:19.490Z,22.83
2019-06-04T21:25:16.715Z,20.70
2019-06-04T21:27:47.647Z,19.33
2019-06-04T21:30:56.713Z,24.77
2019-06-04T21:39:53.160Z,22.43
2019-06-04T21:42:20.319Z,25.87
2019-06-04T21:44:51.106Z,29.47
2019-06-04T21:48:00.399Z,24.80
2019-06-04T21:50:30.622Z,28.87
2019-06-04T21:53:00.066Z,33.73
2019-06-04T21:56:08.832Z,31.47
2019-06-04T21:58:38.270Z,31.97
2019-06-04T22:04:37.489Z,24.47
2019-06-04T22:07:07.062Z,26.57
2019-06-04T22:10:16.203Z,25.50
2019-06-04T22:16:02.791Z,25.93
2019-06-04T22:18:38.958Z,26.83
2019-06-04T22:24:04.544Z,32.57
2019-06-04T22:27:13.572Z,22.30
2019-06-04T22:29:43.112Z,25.10
2019-06-04T22:32:12.763Z,22.47
2019-06-04T22:34:42.311Z,20.60
2019-06-04T22:37:11.773Z,22.60
2019-06-04T22:39:41.744Z,23.27
2019-06-04T22:42:11.110Z,20.00
2019-06-04T22:44:40.541Z,21.27
2019-06-04T22:47:10.434Z,22.60
2019-06-04T22:52:54.652Z,22.73
2019-06-04T22:58:27.546Z,20.30
2019-06-04T23:00:57.913Z,24.27
2019-06-04T23:03:29.662Z,19.93
2019-06-04T23:08:56.526Z,23.83
2019-06-04T23:11:26.038Z,21.83
2019-06-04T23:13:56.583Z,21.53
2019-06-04T23:17:06.235Z,22.83
2019-06-04T23:22:37.855Z,22.77
2019-06-04T23:25:07.357Z,21.07
2019-06-04T23:28:16.326Z,22.50
2019-06-04T23:33:47.603Z,21.50
2019-06-04T23:36:56.969Z,22.57
2019-06-04T23:40:06.971Z,22.87
2019-06-04T23:42:36.365Z,20.87
2019-06-04T23:45:45.269Z,20.50
2019-06-04T23:51:35.192Z,21.60
2019-06-04T23:54:05.923Z,25.63
2019-06-04T23:56:35.823Z,25.37
2019-06-04T23:59:44.555Z,21.33
